sensor_id;sensor_type;location;lat;lon;timestamp;temperature;humidity
5415;DHT22;2730;51.512;7.504;2024-03-08T00:01:00;1.90;1.00
5415;DHT22;2730;51.512;7.504;2024-03-08T00:03:27;1.90;1.00
5415;DHT22;2730;51.512;7.504;2024-03-08T00:05:54;1.90;1.00
5415;DHT22;2730;51.512;7.504;2024-03-08T00:08:21;1.90;1.00
5415;DHT22;2730;51.512;7.504;2024-03-08T00:10:48;2.00;99.90
5415;DHT22;2730;51.512;7.504;2024-03-08T00:13:16;1.90;99.90
5415;DHT22;2730;51.512;7.504;2024-03-08T00:15:43;1.90;99.90
5415;DHT22;2730;51.512;7.504;2024-03-08T00:18:10;1.90;99.90
5415;DHT22;2730;51.512;7.504;2024-03-08T00:20:37;2.00;99.90
5415;DHT22;2730;51.512;7.504;2024-03-08T00:23:03;2.00;99.90
5415;DHT22;2730;51.512;7.504;2024-03-08T00:25:30;1.90;99.90
5415;DHT22;2730;51.512;7.504;2024-03-08T00:27:57;1.90;99.90
5415;DHT22;2730;51.512;7.504;2024-03-08T00:30:26;1.80;99.90
5415;DHT22;2730;51.512;7.504;2024-03-08T00:32:53;1.80;1.00
5415;DHT22;2730;51.512;7.504;2024-03-08T00:35:20;1.80;99.90
5415;DHT22;2730;51.512;7.504;2024-03-08T00:37:46;1.90;99.90
5415;DHT22;2730;51.512;7.504;2024-03-08T00:40:13;1.80;99.90
5415;DHT22;2730;51.512;7.504;2024-03-08T00:42:40;1.80;1.00
5415;DHT22;2730;51.512;7.504;2024-03-08T00:45:09;1.80;99.90
5415;DHT22;2730;51.512;7.504;2024-03-08T00:47:38;1.70;99.90
5415;DHT22;2730;51.512;7.504;2024-03-08T00:50:05;1.60;1.00
5415;DHT22;2730;51.512;7.504;2024-03-08T00:52:33;1.60;1.00
5415;DHT22;2730;51.512;7.504;2024-03-08T00:55:00;1.60;1.00
5415;DHT22;2730;51.512;7.504;2024-03-08T00:57:27;1.50;1.00
5415;DHT22;2730;51.512;7.504;2024-03-08T00:59:54;1.50;1.00
5415;DHT22;2730;51.512;7.504;2024-03-08T01:02:21;1.50;1.00
5415;DHT22;2730;51.512;7.504;2024-03-08T01:04:50;1.50;1.00
5415;DHT22;2730;51.512;7.504;2024-03-08T01:07:16;1.50;1.00
5415;DHT22;2730;51.512;7.504;2024-03-08T01:09:43;1.50;1.00
5415;DHT22;2730;51.512;7.504;2024-03-08T01:12:10;1.60;1.00
5415;DHT22;2730;51.512;7.504;2024-03-08T01:14:36;1.50;1.00
5415;DHT22;2730;51.512;7.504;2024-03-08T01:17:03;1.50;99.90
5415;DHT22;2730;51.512;7.504;2024-03-08T01:19:30;1.60;99.90
5415;DHT22;2730;51.512;7.504;2024-03-08T01:21:59;1.70;99.90
5415;DHT22;2730;51.512;7.504;2024-03-08T01:24:26;1.70;99.90
5415;DHT22;2730;51.512;7.504;2024-03-08T01:26:53;1.50;99.90
5415;DHT22;2730;51.512;7.504;2024-03-08T01:29:20;1.50;99.90
5415;DHT22;2730;51.512;7.504;2024-03-08T01:31:46;1.50;99.90
5415;DHT22;2730;51.512;7.504;2024-03-08T01:34:13;1.50;99.90
5415;DHT22;2730;51.512;7.504;2024-03-08T01:36:40;1.60;1.00
5415;DHT22;2730;51.512;7.504;2024-03-08T01:39:08;1.60;99.90
5415;DHT22;2730;51.512;7.504;2024-03-08T01:41:35;1.60;99.90
5415;DHT22;2730;51.512;7.504;2024-03-08T01:44:02;1.50;99.90
5415;DHT22;2730;51.512;7.504;2024-03-08T01:46:29;1.50;99.90
5415;DHT22;2730;51.512;7.504;2024-03-08T01:48:56;1.50;99.90
5415;DHT22;2730;51.512;7.504;2024-03-08T01:51:23;1.50;1.00
5415;DHT22;2730;51.512;7.504;2024-03-08T01:53:50;1.50;1.00
5415;DHT22;2730;51.512;7.504;2024-03-08T01:56:19;1.50;1.00
5415;DHT22;2730;51.512;7.504;2024-03-08T01:58:45;1.50;1.00
5415;DHT22;2730;51.512;7.504;2024-03-08T02:01:13;1.40;1.00
5415;DHT22;2730;51.512;7.504;2024-03-08T02:03:41;1.50;1.00
5415;DHT22;2730;51.512;7.504;2024-03-08T02:06:09;1.40;99.90
5415;DHT22;2730;51.512;7.504;2024-03-08T02:08:36;1.40;1.00
5415;DHT22;2730;51.512;7.504;2024-03-08T02:11:04;1.40;1.00
5415;DHT22;2730;51.512;7.504;2024-03-08T02:13:32;1.40;1.00
5415;DHT22;2730;51.512;7.504;2024-03-08T02:16:00;1.40;1.00
5415;DHT22;2730;51.512;7.504;2024-03-08T02:18:28;1.30;1.00
5415;DHT22;2730;51.512;7.504;2024-03-08T02:20:57;1.30;1.00
5415;DHT22;2730;51.512;7.504;2024-03-08T02:23:25;1.30;1.00
5415;DHT22;2730;51.512;7.504;2024-03-08T02:25:52;1.30;1.00
5415;DHT22;2730;51.512;7.504;2024-03-08T02:28:20;1.30;1.00
5415;DHT22;2730;51.512;7.504;2024-03-08T02:30:47;1.30;1.00
5415;DHT22;2730;51.512;7.504;2024-03-08T02:33:14;1.20;1.00
5415;DHT22;2730;51.512;7.504;2024-03-08T02:35:42;1.30;1.00
5415;DHT22;2730;51.512;7.504;2024-03-08T02:38:12;1.30;1.00
5415;DHT22;2730;51.512;7.504;2024-03-08T02:40:41;1.30;1.00
5415;DHT22;2730;51.512;7.504;2024-03-08T02:43:08;1.30;1.00
5415;DHT22;2730;51.512;7.504;2024-03-08T02:45:35;1.10;1.00
5415;DHT22;2730;51.512;7.504;2024-03-08T02:48:02;1.00;99.90
5415;DHT22;2730;51.512;7.504;2024-03-08T02:50:28;0.90;1.00
5415;DHT22;2730;51.512;7.504;2024-03-08T02:52:55;0.90;1.00
5415;DHT22;2730;51.512;7.504;2024-03-08T02:55:23;0.90;99.90
5415;DHT22;2730;51.512;7.504;2024-03-08T02:57:51;0.80;1.00
5415;DHT22;2730;51.512;7.504;2024-03-08T03:00:20;0.70;1.00
5415;DHT22;2730;51.512;7.504;2024-03-08T03:02:48;0.70;1.00
5415;DHT22;2730;51.512;7.504;2024-03-08T03:05:17;0.60;99.90
5415;DHT22;2730;51.512;7.504;2024-03-08T03:07:44;0.60;99.90
5415;DHT22;2730;51.512;7.504;2024-03-08T03:10:11;0.50;73.40
5415;DHT22;2730;51.512;7.504;2024-03-08T03:12:44;0.50;1.00
5415;DHT22;2730;51.512;7.504;2024-03-08T03:15:11;0.40;99.90
5415;DHT22;2730;51.512;7.504;2024-03-08T03:17:38;0.40;1.00
5415;DHT22;2730;51.512;7.504;2024-03-08T03:20:06;0.40;1.00
5415;DHT22;2730;51.512;7.504;2024-03-08T03:22:36;0.50;99.90
5415;DHT22;2730;51.512;7.504;2024-03-08T03:25:04;0.50;1.00
5415;DHT22;2730;51.512;7.504;2024-03-08T03:27:32;0.60;1.00
5415;DHT22;2730;51.512;7.504;2024-03-08T03:30:00;0.50;1.00
5415;DHT22;2730;51.512;7.504;2024-03-08T03:32:46;0.50;1.00
5415;DHT22;2730;51.512;7.504;2024-03-08T03:35:13;0.60;1.00
5415;DHT22;2730;51.512;7.504;2024-03-08T03:37:41;0.50;1.00
5415;DHT22;2730;51.512;7.504;2024-03-08T03:40:11;0.40;99.90
5415;DHT22;2730;51.512;7.504;2024-03-08T03:42:38;0.20;99.90
5415;DHT22;2730;51.512;7.504;2024-03-08T03:45:07;0.10;99.90
5415;DHT22;2730;51.512;7.504;2024-03-08T03:47:35;0.20;77.90
5415;DHT22;2730;51.512;7.504;2024-03-08T03:50:04;0.10;99.90
5415;DHT22;2730;51.512;7.504;2024-03-08T03:52:31;0.10;85.80
5415;DHT22;2730;51.512;7.504;2024-03-08T03:54:58;0.10;99.90
5415;DHT22;2730;51.512;7.504;2024-03-08T03:57:24;0.10;1.00
5415;DHT22;2730;51.512;7.504;2024-03-08T03:59:51;0.10;1.00
5415;DHT22;2730;51.512;7.504;2024-03-08T04:02:19;0.00;99.90
5415;DHT22;2730;51.512;7.504;2024-03-08T04:04:46;0.20;99.90
5415;DHT22;2730;51.512;7.504;2024-03-08T04:07:13;0.10;1.00
5415;DHT22;2730;51.512;7.504;2024-03-08T04:09:40;0.20;1.00
5415;DHT22;2730;51.512;7.504;2024-03-08T04:12:06;0.30;99.90
5415;DHT22;2730;51.512;7.504;2024-03-08T04:14:35;0.30;99.90
5415;DHT22;2730;51.512;7.504;2024-03-08T04:17:02;0.20;1.00
5415;DHT22;2730;51.512;7.504;2024-03-08T04:19:30;0.20;99.90
5415;DHT22;2730;51.512;7.504;2024-03-08T04:21:57;0.10;99.90
5415;DHT22;2730;51.512;7.504;2024-03-08T04:24:23;0.00;99.90
5415;DHT22;2730;51.512;7.504;2024-03-08T04:26:50;0.00;1.00
5415;DHT22;2730;51.512;7.504;2024-03-08T04:29:18;0.00;99.90
5415;DHT22;2730;51.512;7.504;2024-03-08T04:31:45;-0.10;1.00
5415;DHT22;2730;51.512;7.504;2024-03-08T04:34:12;-0.20;1.00
5415;DHT22;2730;51.512;7.504;2024-03-08T04:36:41;-0.20;99.90
5415;DHT22;2730;51.512;7.504;2024-03-08T04:39:08;-0.30;1.00
5415;DHT22;2730;51.512;7.504;2024-03-08T04:41:38;-0.30;1.00
5415;DHT22;2730;51.512;7.504;2024-03-08T04:44:05;-0.30;1.00
5415;DHT22;2730;51.512;7.504;2024-03-08T04:46:32;-0.30;1.00
5415;DHT22;2730;51.512;7.504;2024-03-08T04:49:00;-0.30;5.50
5415;DHT22;2730;51.512;7.504;2024-03-08T04:51:27;-0.40;1.00
5415;DHT22;2730;51.512;7.504;2024-03-08T04:53:55;-0.40;95.70
5415;DHT22;2730;51.512;7.504;2024-03-08T04:56:22;-0.40;99.90
5415;DHT22;2730;51.512;7.504;2024-03-08T04:58:49;-0.40;99.90
5415;DHT22;2730;51.512;7.504;2024-03-08T05:01:16;-0.40;99.90
5415;DHT22;2730;51.512;7.504;2024-03-08T05:03:42;-0.40;99.90
5415;DHT22;2730;51.512;7.504;2024-03-08T05:06:09;-0.40;99.90
5415;DHT22;2730;51.512;7.504;2024-03-08T05:08:36;-0.50;99.90
5415;DHT22;2730;51.512;7.504;2024-03-08T05:11:04;-0.50;99.90
5415;DHT22;2730;51.512;7.504;2024-03-08T05:13:32;-0.40;1.00
5415;DHT22;2730;51.512;7.504;2024-03-08T05:15:59;-0.40;99.90
5415;DHT22;2730;51.512;7.504;2024-03-08T05:18:26;-0.40;99.90
5415;DHT22;2730;51.512;7.504;2024-03-08T05:20:53;-0.40;99.90
5415;DHT22;2730;51.512;7.504;2024-03-08T05:23:20;-0.40;99.90
5415;DHT22;2730;51.512;7.504;2024-03-08T05:25:47;-0.40;99.90
5415;DHT22;2730;51.512;7.504;2024-03-08T05:28:16;-0.30;99.90
5415;DHT22;2730;51.512;7.504;2024-03-08T05:30:42;-0.40;1.00
5415;DHT22;2730;51.512;7.504;2024-03-08T05:33:09;-0.30;99.90
5415;DHT22;2730;51.512;7.504;2024-03-08T05:35:36;-0.40;99.90
5415;DHT22;2730;51.512;7.504;2024-03-08T05:38:03;-0.40;63.50
5415;DHT22;2730;51.512;7.504;2024-03-08T05:40:30;-0.40;99.90
5415;DHT22;2730;51.512;7.504;2024-03-08T05:42:58;-0.40;99.90
5415;DHT22;2730;51.512;7.504;2024-03-08T05:45:26;-0.30;99.90
5415;DHT22;2730;51.512;7.504;2024-03-08T05:47:53;-0.40;99.90
5415;DHT22;2730;51.512;7.504;2024-03-08T05:50:19;-0.40;42.10
5415;DHT22;2730;51.512;7.504;2024-03-08T05:52:46;-0.40;99.90
5415;DHT22;2730;51.512;7.504;2024-03-08T05:55:15;-0.50;99.90
5415;DHT22;2730;51.512;7.504;2024-03-08T05:57:42;-0.50;1.00
5415;DHT22;2730;51.512;7.504;2024-03-08T06:00:10;-0.50;1.00
5415;DHT22;2730;51.512;7.504;2024-03-08T06:02:38;-0.60;1.00
5415;DHT22;2730;51.512;7.504;2024-03-08T06:05:08;-0.60;1.00
5415;DHT22;2730;51.512;7.504;2024-03-08T06:07:35;-0.50;1.00
5415;DHT22;2730;51.512;7.504;2024-03-08T06:10:02;-0.50;1.00
5415;DHT22;2730;51.512;7.504;2024-03-08T06:12:29;-0.50;1.00
5415;DHT22;2730;51.512;7.504;2024-03-08T06:14:59;-0.40;1.00
5415;DHT22;2730;51.512;7.504;2024-03-08T06:17:26;-0.40;1.00
5415;DHT22;2730;51.512;7.504;2024-03-08T06:19:54;-0.30;99.90
5415;DHT22;2730;51.512;7.504;2024-03-08T06:22:20;-0.30;99.90
5415;DHT22;2730;51.512;7.504;2024-03-08T06:24:47;-0.30;99.90
5415;DHT22;2730;51.512;7.504;2024-03-08T06:27:14;-0.30;1.00
5415;DHT22;2730;51.512;7.504;2024-03-08T06:29:40;-0.30;99.90
5415;DHT22;2730;51.512;7.504;2024-03-08T06:32:07;-0.30;14.00
5415;DHT22;2730;51.512;7.504;2024-03-08T06:34:34;-0.20;1.00
5415;DHT22;2730;51.512;7.504;2024-03-08T06:37:02;-0.10;1.00
5415;DHT22;2730;51.512;7.504;2024-03-08T06:39:29;-0.10;99.90
5415;DHT22;2730;51.512;7.504;2024-03-08T06:41:57;0.00;83.60
5415;DHT22;2730;51.512;7.504;2024-03-08T06:44:24;0.00;1.00
5415;DHT22;2730;51.512;7.504;2024-03-08T06:46:51;0.00;1.00
5415;DHT22;2730;51.512;7.504;2024-03-08T06:49:18;0.10;1.00
5415;DHT22;2730;51.512;7.504;2024-03-08T06:51:45;0.10;99.90
5415;DHT22;2730;51.512;7.504;2024-03-08T06:54:13;0.10;80.10
5415;DHT22;2730;51.512;7.504;2024-03-08T06:56:40;0.30;82.70
5415;DHT22;2730;51.512;7.504;2024-03-08T06:59:07;0.30;1.00
5415;DHT22;2730;51.512;7.504;2024-03-08T07:01:36;0.30;1.00
5415;DHT22;2730;51.512;7.504;2024-03-08T07:04:04;0.30;99.90
5415;DHT22;2730;51.512;7.504;2024-03-08T07:06:31;0.40;1.00
5415;DHT22;2730;51.512;7.504;2024-03-08T07:08:58;0.50;99.90
5415;DHT22;2730;51.512;7.504;2024-03-08T07:11:27;0.50;99.90
5415;DHT22;2730;51.512;7.504;2024-03-08T07:13:54;0.50;79.10
5415;DHT22;2730;51.512;7.504;2024-03-08T07:16:20;0.60;1.00
5415;DHT22;2730;51.512;7.504;2024-03-08T07:18:47;0.70;1.00
5415;DHT22;2730;51.512;7.504;2024-03-08T07:21:17;0.90;99.90
5415;DHT22;2730;51.512;7.504;2024-03-08T07:23:45;0.90;1.00
5415;DHT22;2730;51.512;7.504;2024-03-08T07:26:29;0.90;1.00
5415;DHT22;2730;51.512;7.504;2024-03-08T07:28:57;0.90;99.90
5415;DHT22;2730;51.512;7.504;2024-03-08T07:31:26;0.90;99.90
5415;DHT22;2730;51.512;7.504;2024-03-08T07:34:03;1.10;99.90
5415;DHT22;2730;51.512;7.504;2024-03-08T07:36:33;1.20;1.00
5415;DHT22;2730;51.512;7.504;2024-03-08T07:39:00;1.20;1.00
5415;DHT22;2730;51.512;7.504;2024-03-08T07:41:28;1.30;99.90
5415;DHT22;2730;51.512;7.504;2024-03-08T07:43:55;1.40;99.90
5415;DHT22;2730;51.512;7.504;2024-03-08T07:46:22;1.30;99.90
5415;DHT22;2730;51.512;7.504;2024-03-08T07:48:49;1.40;99.90
5415;DHT22;2730;51.512;7.504;2024-03-08T07:51:16;1.50;99.90
5415;DHT22;2730;51.512;7.504;2024-03-08T07:53:43;1.50;1.00
5415;DHT22;2730;51.512;7.504;2024-03-08T07:56:10;1.70;1.00
5415;DHT22;2730;51.512;7.504;2024-03-08T07:58:40;1.70;1.00
5415;DHT22;2730;51.512;7.504;2024-03-08T08:01:07;1.90;99.90
5415;DHT22;2730;51.512;7.504;2024-03-08T08:03:34;2.00;99.90
5415;DHT22;2730;51.512;7.504;2024-03-08T08:06:03;2.10;99.90
5415;DHT22;2730;51.512;7.504;2024-03-08T08:08:30;2.20;38.30
5415;DHT22;2730;51.512;7.504;2024-03-08T08:10:57;2.40;1.00
5415;DHT22;2730;51.512;7.504;2024-03-08T08:13:24;2.40;1.00
5415;DHT22;2730;51.512;7.504;2024-03-08T08:15:54;2.50;99.90
5415;DHT22;2730;51.512;7.504;2024-03-08T08:18:22;2.60;99.90
5415;DHT22;2730;51.512;7.504;2024-03-08T08:20:50;2.70;99.90
5415;DHT22;2730;51.512;7.504;2024-03-08T08:23:17;2.80;99.90
5415;DHT22;2730;51.512;7.504;2024-03-08T08:25:45;2.80;99.90
5415;DHT22;2730;51.512;7.504;2024-03-08T08:28:11;3.00;54.30
5415;DHT22;2730;51.512;7.504;2024-03-08T08:30:38;3.20;99.90
5415;DHT22;2730;51.512;7.504;2024-03-08T08:33:06;3.30;99.90
5415;DHT22;2730;51.512;7.504;2024-03-08T08:35:33;3.40;1.00
5415;DHT22;2730;51.512;7.504;2024-03-08T08:38:00;3.50;1.00
5415;DHT22;2730;51.512;7.504;2024-03-08T08:40:29;3.60;1.00
5415;DHT22;2730;51.512;7.504;2024-03-08T08:42:57;3.80;1.00
5415;DHT22;2730;51.512;7.504;2024-03-08T08:45:24;4.50;99.90
5415;DHT22;2730;51.512;7.504;2024-03-08T08:47:50;5.80;1.00
5415;DHT22;2730;51.512;7.504;2024-03-08T08:50:18;7.00;1.00
5415;DHT22;2730;51.512;7.504;2024-03-08T08:52:48;8.10;99.90
5415;DHT22;2730;51.512;7.504;2024-03-08T08:55:15;8.70;99.90
5415;DHT22;2730;51.512;7.504;2024-03-08T08:57:46;8.50;99.90
5415;DHT22;2730;51.512;7.504;2024-03-08T09:00:13;8.70;99.90
5415;DHT22;2730;51.512;7.504;2024-03-08T09:02:41;8.90;99.90
5415;DHT22;2730;51.512;7.504;2024-03-08T09:05:08;9.30;99.90
5415;DHT22;2730;51.512;7.504;2024-03-08T09:07:36;9.30;88.30
5415;DHT22;2730;51.512;7.504;2024-03-08T09:10:04;9.30;57.60
5415;DHT22;2730;51.512;7.504;2024-03-08T09:12:30;9.50;61.10
5415;DHT22;2730;51.512;7.504;2024-03-08T09:14:58;9.30;48.90
5415;DHT22;2730;51.512;7.504;2024-03-08T09:17:25;9.20;27.50
5415;DHT22;2730;51.512;7.504;2024-03-08T09:19:52;9.30;35.60
5415;DHT22;2730;51.512;7.504;2024-03-08T09:22:19;9.70;28.10
5415;DHT22;2730;51.512;7.504;2024-03-08T09:24:47;10.00;17.60
5415;DHT22;2730;51.512;7.504;2024-03-08T09:27:14;10.40;8.60
5415;DHT22;2730;51.512;7.504;2024-03-08T09:29:41;10.30;1.00
5415;DHT22;2730;51.512;7.504;2024-03-08T09:32:09;10.70;1.00
5415;DHT22;2730;51.512;7.504;2024-03-08T09:34:37;10.80;1.00
5415;DHT22;2730;51.512;7.504;2024-03-08T09:37:04;10.10;1.00
5415;DHT22;2730;51.512;7.504;2024-03-08T09:39:30;10.00;1.00
5415;DHT22;2730;51.512;7.504;2024-03-08T09:42:00;9.60;1.00
5415;DHT22;2730;51.512;7.504;2024-03-08T09:44:27;9.70;1.00
5415;DHT22;2730;51.512;7.504;2024-03-08T09:46:54;10.30;1.00
5415;DHT22;2730;51.512;7.504;2024-03-08T09:49:23;10.40;1.00
5415;DHT22;2730;51.512;7.504;2024-03-08T09:51:50;10.60;1.00
5415;DHT22;2730;51.512;7.504;2024-03-08T09:54:17;10.30;1.00
5415;DHT22;2730;51.512;7.504;2024-03-08T09:56:47;10.40;1.00
5415;DHT22;2730;51.512;7.504;2024-03-08T09:59:16;10.30;1.00
5415;DHT22;2730;51.512;7.504;2024-03-08T10:02:13;10.10;1.00
5415;DHT22;2730;51.512;7.504;2024-03-08T10:04:41;10.10;1.00
5415;DHT22;2730;51.512;7.504;2024-03-08T10:07:08;10.10;1.00
5415;DHT22;2730;51.512;7.504;2024-03-08T10:09:35;10.30;1.00
5415;DHT22;2730;51.512;7.504;2024-03-08T10:12:02;10.40;1.00
5415;DHT22;2730;51.512;7.504;2024-03-08T10:14:30;10.10;1.00
5415;DHT22;2730;51.512;7.504;2024-03-08T10:16:57;10.00;1.00
5415;DHT22;2730;51.512;7.504;2024-03-08T10:19:25;9.90;1.00
5415;DHT22;2730;51.512;7.504;2024-03-08T10:21:52;10.10;1.00
5415;DHT22;2730;51.512;7.504;2024-03-08T10:24:22;10.00;1.00
5415;DHT22;2730;51.512;7.504;2024-03-08T10:26:52;10.10;1.00
5415;DHT22;2730;51.512;7.504;2024-03-08T10:29:19;9.70;1.00
5415;DHT22;2730;51.512;7.504;2024-03-08T10:31:47;10.00;1.00
5415;DHT22;2730;51.512;7.504;2024-03-08T10:34:15;10.20;1.00
5415;DHT22;2730;51.512;7.504;2024-03-08T10:36:42;9.90;1.00
5415;DHT22;2730;51.512;7.504;2024-03-08T10:39:15;9.90;1.00
5415;DHT22;2730;51.512;7.504;2024-03-08T10:41:46;10.10;1.00
5415;DHT22;2730;51.512;7.504;2024-03-08T10:44:25;10.00;1.00
5415;DHT22;2730;51.512;7.504;2024-03-08T10:47:01;10.10;1.00
5415;DHT22;2730;51.512;7.504;2024-03-08T10:49:32;10.50;1.00
5415;DHT22;2730;51.512;7.504;2024-03-08T10:52:03;10.80;1.00
5415;DHT22;2730;51.512;7.504;2024-03-08T10:54:34;10.70;1.00
5415;DHT22;2730;51.512;7.504;2024-03-08T10:57:05;10.80;1.00
5415;DHT22;2730;51.512;7.504;2024-03-08T10:59:34;10.70;1.00
5415;DHT22;2730;51.512;7.504;2024-03-08T11:02:03;10.50;1.00
5415;DHT22;2730;51.512;7.504;2024-03-08T11:04:31;10.60;1.00
5415;DHT22;2730;51.512;7.504;2024-03-08T11:07:00;10.70;1.00
5415;DHT22;2730;51.512;7.504;2024-03-08T11:09:32;10.90;1.00
5415;DHT22;2730;51.512;7.504;2024-03-08T11:12:21;10.70;1.00
5415;DHT22;2730;51.512;7.504;2024-03-08T11:14:51;10.10;1.00
5415;DHT22;2730;51.512;7.504;2024-03-08T11:17:26;9.50;1.00
5415;DHT22;2730;51.512;7.504;2024-03-08T11:20:00;9.10;1.00
5415;DHT22;2730;51.512;7.504;2024-03-08T11:22:32;8.90;1.00
5415;DHT22;2730;51.512;7.504;2024-03-08T11:25:01;8.80;1.00
5415;DHT22;2730;51.512;7.504;2024-03-08T11:27:29;8.60;1.00
5415;DHT22;2730;51.512;7.504;2024-03-08T11:30:01;8.60;1.00
5415;DHT22;2730;51.512;7.504;2024-03-08T11:32:38;8.70;3.80
5415;DHT22;2730;51.512;7.504;2024-03-08T11:35:06;8.90;1.00
5415;DHT22;2730;51.512;7.504;2024-03-08T11:37:34;9.00;2.30
5415;DHT22;2730;51.512;7.504;2024-03-08T11:40:01;9.20;1.00
5415;DHT22;2730;51.512;7.504;2024-03-08T11:42:30;9.40;1.00
5415;DHT22;2730;51.512;7.504;2024-03-08T11:44:57;9.60;1.00
5415;DHT22;2730;51.512;7.504;2024-03-08T11:47:24;9.60;1.00
5415;DHT22;2730;51.512;7.504;2024-03-08T11:49:53;9.80;1.00
5415;DHT22;2730;51.512;7.504;2024-03-08T11:52:19;9.90;1.00
5415;DHT22;2730;51.512;7.504;2024-03-08T11:54:52;9.90;1.00
5415;DHT22;2730;51.512;7.504;2024-03-08T11:57:23;10.00;1.00
5415;DHT22;2730;51.512;7.504;2024-03-08T11:59:50;10.10;1.00
5415;DHT22;2730;51.512;7.504;2024-03-08T12:02:17;10.20;1.00
5415;DHT22;2730;51.512;7.504;2024-03-08T12:04:44;10.20;1.00
5415;DHT22;2730;51.512;7.504;2024-03-08T12:07:13;10.10;1.00
5415;DHT22;2730;51.512;7.504;2024-03-08T12:09:44;10.20;1.00
5415;DHT22;2730;51.512;7.504;2024-03-08T12:12:39;10.10;1.00
5415;DHT22;2730;51.512;7.504;2024-03-08T12:15:06;10.00;1.00
5415;DHT22;2730;51.512;7.504;2024-03-08T12:17:33;10.20;1.00
5415;DHT22;2730;51.512;7.504;2024-03-08T12:20:11;10.20;1.00
5415;DHT22;2730;51.512;7.504;2024-03-08T12:22:42;10.30;1.00
5415;DHT22;2730;51.512;7.504;2024-03-08T12:25:11;10.30;1.00
5415;DHT22;2730;51.512;7.504;2024-03-08T12:27:38;10.30;1.00
5415;DHT22;2730;51.512;7.504;2024-03-08T12:30:19;10.30;1.00
5415;DHT22;2730;51.512;7.504;2024-03-08T12:32:52;10.30;1.00
5415;DHT22;2730;51.512;7.504;2024-03-08T12:35:20;10.40;1.00
5415;DHT22;2730;51.512;7.504;2024-03-08T12:37:50;10.40;1.00
5415;DHT22;2730;51.512;7.504;2024-03-08T12:40:17;10.40;1.00
5415;DHT22;2730;51.512;7.504;2024-03-08T12:42:44;10.50;1.00
5415;DHT22;2730;51.512;7.504;2024-03-08T12:45:13;10.50;1.00
5415;DHT22;2730;51.512;7.504;2024-03-08T12:47:40;10.30;1.00
5415;DHT22;2730;51.512;7.504;2024-03-08T12:50:08;10.30;1.00
5415;DHT22;2730;51.512;7.504;2024-03-08T12:52:35;10.30;1.00
5415;DHT22;2730;51.512;7.504;2024-03-08T12:55:04;10.40;1.00
5415;DHT22;2730;51.512;7.504;2024-03-08T12:57:32;10.40;1.00
5415;DHT22;2730;51.512;7.504;2024-03-08T13:00:00;10.40;1.00
5415;DHT22;2730;51.512;7.504;2024-03-08T13:02:27;10.30;1.00
5415;DHT22;2730;51.512;7.504;2024-03-08T13:04:54;10.50;1.00
5415;DHT22;2730;51.512;7.504;2024-03-08T13:07:23;10.50;1.00
5415;DHT22;2730;51.512;7.504;2024-03-08T13:09:51;10.50;1.00
5415;DHT22;2730;51.512;7.504;2024-03-08T13:12:20;10.40;1.00
5415;DHT22;2730;51.512;7.504;2024-03-08T13:14:47;10.60;1.00
5415;DHT22;2730;51.512;7.504;2024-03-08T13:17:14;10.60;1.00
5415;DHT22;2730;51.512;7.504;2024-03-08T13:19:41;10.60;1.00
5415;DHT22;2730;51.512;7.504;2024-03-08T13:22:08;10.60;1.00
5415;DHT22;2730;51.512;7.504;2024-03-08T13:24:38;10.50;1.00
5415;DHT22;2730;51.512;7.504;2024-03-08T13:27:06;10.60;1.00
5415;DHT22;2730;51.512;7.504;2024-03-08T13:29:46;10.60;1.00
5415;DHT22;2730;51.512;7.504;2024-03-08T13:32:14;10.50;1.00
5415;DHT22;2730;51.512;7.504;2024-03-08T13:34:41;10.50;1.00
5415;DHT22;2730;51.512;7.504;2024-03-08T13:37:08;10.50;1.00
5415;DHT22;2730;51.512;7.504;2024-03-08T13:39:35;10.50;1.00
5415;DHT22;2730;51.512;7.504;2024-03-08T13:42:06;10.50;1.00
5415;DHT22;2730;51.512;7.504;2024-03-08T13:44:35;10.40;1.00
5415;DHT22;2730;51.512;7.504;2024-03-08T13:47:03;10.40;1.00
5415;DHT22;2730;51.512;7.504;2024-03-08T13:49:30;10.30;1.00
5415;DHT22;2730;51.512;7.504;2024-03-08T13:51:58;10.40;1.00
5415;DHT22;2730;51.512;7.504;2024-03-08T13:54:25;10.40;1.00
5415;DHT22;2730;51.512;7.504;2024-03-08T13:56:55;10.50;1.00
5415;DHT22;2730;51.512;7.504;2024-03-08T13:59:22;10.50;1.00
5415;DHT22;2730;51.512;7.504;2024-03-08T14:01:49;10.50;1.00
5415;DHT22;2730;51.512;7.504;2024-03-08T14:04:18;10.50;1.00
5415;DHT22;2730;51.512;7.504;2024-03-08T14:06:44;10.50;1.00
5415;DHT22;2730;51.512;7.504;2024-03-08T14:09:11;10.40;1.00
5415;DHT22;2730;51.512;7.504;2024-03-08T14:11:42;10.40;1.00
5415;DHT22;2730;51.512;7.504;2024-03-08T14:14:09;10.40;1.00
5415;DHT22;2730;51.512;7.504;2024-03-08T14:16:37;10.40;1.00
5415;DHT22;2730;51.512;7.504;2024-03-08T14:19:04;10.40;1.00
5415;DHT22;2730;51.512;7.504;2024-03-08T14:21:33;10.50;1.00
5415;DHT22;2730;51.512;7.504;2024-03-08T14:23:59;10.50;1.00
5415;DHT22;2730;51.512;7.504;2024-03-08T14:26:26;10.40;1.00
5415;DHT22;2730;51.512;7.504;2024-03-08T14:28:53;10.40;1.00
5415;DHT22;2730;51.512;7.504;2024-03-08T14:31:20;10.40;1.00
5415;DHT22;2730;51.512;7.504;2024-03-08T14:33:51;10.40;1.00
5415;DHT22;2730;51.512;7.504;2024-03-08T14:36:18;10.30;1.00
5415;DHT22;2730;51.512;7.504;2024-03-08T14:38:46;10.30;1.00
5415;DHT22;2730;51.512;7.504;2024-03-08T14:41:13;10.20;1.00
5415;DHT22;2730;51.512;7.504;2024-03-08T14:43:42;10.20;1.00
5415;DHT22;2730;51.512;7.504;2024-03-08T14:46:10;10.30;1.00
5415;DHT22;2730;51.512;7.504;2024-03-08T14:48:39;10.30;1.00
5415;DHT22;2730;51.512;7.504;2024-03-08T14:51:06;10.40;1.00
5415;DHT22;2730;51.512;7.504;2024-03-08T14:53:36;10.40;1.00
5415;DHT22;2730;51.512;7.504;2024-03-08T14:56:08;10.40;1.00
5415;DHT22;2730;51.512;7.504;2024-03-08T14:58:35;10.40;1.00
5415;DHT22;2730;51.512;7.504;2024-03-08T15:01:03;10.40;1.00
5415;DHT22;2730;51.512;7.504;2024-03-08T15:03:35;10.30;1.00
5415;DHT22;2730;51.512;7.504;2024-03-08T15:06:02;10.20;1.00
5415;DHT22;2730;51.512;7.504;2024-03-08T15:08:33;10.30;1.00
5415;DHT22;2730;51.512;7.504;2024-03-08T15:11:00;10.30;1.00
5415;DHT22;2730;51.512;7.504;2024-03-08T15:13:28;10.30;1.00
5415;DHT22;2730;51.512;7.504;2024-03-08T15:16:05;10.20;1.00
5415;DHT22;2730;51.512;7.504;2024-03-08T15:18:32;10.20;1.00
5415;DHT22;2730;51.512;7.504;2024-03-08T15:21:03;10.20;1.00
5415;DHT22;2730;51.512;7.504;2024-03-08T15:23:33;10.10;1.00
5415;DHT22;2730;51.512;7.504;2024-03-08T15:26:00;10.10;1.00
5415;DHT22;2730;51.512;7.504;2024-03-08T15:28:29;10.20;1.00
5415;DHT22;2730;51.512;7.504;2024-03-08T15:31:02;10.10;1.00
5415;DHT22;2730;51.512;7.504;2024-03-08T15:33:32;10.10;1.00
5415;DHT22;2730;51.512;7.504;2024-03-08T15:35:58;10.10;1.00
5415;DHT22;2730;51.512;7.504;2024-03-08T15:38:29;10.10;1.00
5415;DHT22;2730;51.512;7.504;2024-03-08T15:40:56;10.10;1.00
5415;DHT22;2730;51.512;7.504;2024-03-08T15:43:22;10.00;1.00
5415;DHT22;2730;51.512;7.504;2024-03-08T15:45:51;10.00;1.00
5415;DHT22;2730;51.512;7.504;2024-03-08T15:48:20;10.00;1.00
5415;DHT22;2730;51.512;7.504;2024-03-08T15:50:47;10.00;1.00
5415;DHT22;2730;51.512;7.504;2024-03-08T15:53:13;9.90;1.00
5415;DHT22;2730;51.512;7.504;2024-03-08T15:55:41;9.90;1.00
5415;DHT22;2730;51.512;7.504;2024-03-08T15:58:09;9.90;1.00
5415;DHT22;2730;51.512;7.504;2024-03-08T16:00:36;9.80;1.00
5415;DHT22;2730;51.512;7.504;2024-03-08T16:03:14;9.80;1.00
5415;DHT22;2730;51.512;7.504;2024-03-08T16:05:41;9.80;1.00
5415;DHT22;2730;51.512;7.504;2024-03-08T16:08:09;9.80;1.00
5415;DHT22;2730;51.512;7.504;2024-03-08T16:10:41;9.80;1.00
5415;DHT22;2730;51.512;7.504;2024-03-08T16:13:11;9.80;1.00
5415;DHT22;2730;51.512;7.504;2024-03-08T16:15:37;9.70;1.00
5415;DHT22;2730;51.512;7.504;2024-03-08T16:18:05;9.70;1.00
5415;DHT22;2730;51.512;7.504;2024-03-08T16:20:33;9.70;1.00
5415;DHT22;2730;51.512;7.504;2024-03-08T16:23:00;9.70;1.00
5415;DHT22;2730;51.512;7.504;2024-03-08T16:25:28;9.70;1.00
5415;DHT22;2730;51.512;7.504;2024-03-08T16:27:55;9.60;1.00